sensor_id;sensor_type;location;lat;lon;timestamp;temperature;humidity
25024;DHT22;13033;50.936;5.334;2023-12-22T00:01:20;8.40;99.90
25024;DHT22;13033;50.936;5.334;2023-12-22T00:03:46;8.30;99.90
25024;DHT22;13033;50.936;5.334;2023-12-22T00:06:12;8.30;99.90
25024;DHT22;13033;50.936;5.334;2023-12-22T00:08:38;8.40;99.90
25024;DHT22;13033;50.936;5.334;2023-12-22T00:11:04;8.40;99.90
25024;DHT22;13033;50.936;5.334;2023-12-22T00:13:30;8.50;99.90
25024;DHT22;13033;50.936;5.334;2023-12-22T00:15:55;8.60;99.90
25024;DHT22;13033;50.936;5.334;2023-12-22T00:18:21;8.70;99.90
25024;DHT22;13033;50.936;5.334;2023-12-22T00:20:47;8.80;99.90
25024;DHT22;13033;50.936;5.334;2023-12-22T00:23:12;8.80;99.90
25024;DHT22;13033;50.936;5.334;2023-12-22T00:25:38;8.90;99.90
25024;DHT22;13033;50.936;5.334;2023-12-22T00:28:04;8.90;99.90
25024;DHT22;13033;50.936;5.334;2023-12-22T00:30:29;9.00;99.90
25024;DHT22;13033;50.936;5.334;2023-12-22T00:32:55;9.00;99.90
25024;DHT22;13033;50.936;5.334;2023-12-22T00:35:21;9.10;99.90
25024;DHT22;13033;50.936;5.334;2023-12-22T00:37:46;9.20;99.90
25024;DHT22;13033;50.936;5.334;2023-12-22T00:40:12;9.20;99.90
25024;DHT22;13033;50.936;5.334;2023-12-22T00:42:38;9.30;99.90
25024;DHT22;13033;50.936;5.334;2023-12-22T00:45:04;9.40;99.90
25024;DHT22;13033;50.936;5.334;2023-12-22T00:47:30;9.40;99.90
25024;DHT22;13033;50.936;5.334;2023-12-22T00:49:56;9.50;99.90
25024;DHT22;13033;50.936;5.334;2023-12-22T00:52:21;9.50;99.90
25024;DHT22;13033;50.936;5.334;2023-12-22T00:54:47;9.60;99.90
25024;DHT22;13033;50.936;5.334;2023-12-22T00:57:14;9.60;99.90
25024;DHT22;13033;50.936;5.334;2023-12-22T00:59:40;9.70;99.90
25024;DHT22;13033;50.936;5.334;2023-12-22T01:02:16;9.70;99.90
25024;DHT22;13033;50.936;5.334;2023-12-22T01:04:42;9.70;99.90
25024;DHT22;13033;50.936;5.334;2023-12-22T01:07:08;9.80;99.90
25024;DHT22;13033;50.936;5.334;2023-12-22T01:09:34;9.80;99.90
25024;DHT22;13033;50.936;5.334;2023-12-22T01:12:00;9.80;99.90
25024;DHT22;13033;50.936;5.334;2023-12-22T01:14:29;9.80;99.90
25024;DHT22;13033;50.936;5.334;2023-12-22T01:16:55;9.80;99.90
25024;DHT22;13033;50.936;5.334;2023-12-22T01:19:21;9.90;99.90
25024;DHT22;13033;50.936;5.334;2023-12-22T01:21:46;9.90;99.90
25024;DHT22;13033;50.936;5.334;2023-12-22T01:24:12;9.90;99.90
25024;DHT22;13033;50.936;5.334;2023-12-22T01:26:38;10.00;99.90
25024;DHT22;13033;50.936;5.334;2023-12-22T01:29:03;10.00;99.90
25024;DHT22;13033;50.936;5.334;2023-12-22T01:31:30;10.00;99.90
25024;DHT22;13033;50.936;5.334;2023-12-22T01:33:55;10.00;99.90
25024;DHT22;13033;50.936;5.334;2023-12-22T01:36:21;10.00;99.90
25024;DHT22;13033;50.936;5.334;2023-12-22T01:38:47;10.10;99.90
25024;DHT22;13033;50.936;5.334;2023-12-22T01:41:13;10.10;99.90
25024;DHT22;13033;50.936;5.334;2023-12-22T01:43:39;10.00;99.90
25024;DHT22;13033;50.936;5.334;2023-12-22T01:46:05;10.10;99.90
25024;DHT22;13033;50.936;5.334;2023-12-22T01:48:33;10.10;99.90
25024;DHT22;13033;50.936;5.334;2023-12-22T01:51:00;10.00;99.90
25024;DHT22;13033;50.936;5.334;2023-12-22T01:53:27;10.00;99.90
25024;DHT22;13033;50.936;5.334;2023-12-22T01:55:54;10.00;99.90
25024;DHT22;13033;50.936;5.334;2023-12-22T01:58:24;10.00;99.90
25024;DHT22;13033;50.936;5.334;2023-12-22T02:00:53;10.00;99.90
25024;DHT22;13033;50.936;5.334;2023-12-22T02:03:19;10.00;99.90
25024;DHT22;13033;50.936;5.334;2023-12-22T02:05:46;10.00;99.90
25024;DHT22;13033;50.936;5.334;2023-12-22T02:08:12;10.10;99.90
25024;DHT22;13033;50.936;5.334;2023-12-22T02:10:38;10.10;99.90
25024;DHT22;13033;50.936;5.334;2023-12-22T02:13:05;10.10;99.90
25024;DHT22;13033;50.936;5.334;2023-12-22T02:15:31;9.90;99.90
25024;DHT22;13033;50.936;5.334;2023-12-22T02:18:14;9.70;99.90
25024;DHT22;13033;50.936;5.334;2023-12-22T02:20:42;9.60;99.90
25024;DHT22;13033;50.936;5.334;2023-12-22T02:23:09;9.50;99.90
25024;DHT22;13033;50.936;5.334;2023-12-22T02:25:35;9.50;99.90
25024;DHT22;13033;50.936;5.334;2023-12-22T02:28:05;9.50;99.90
25024;DHT22;13033;50.936;5.334;2023-12-22T02:30:41;9.50;99.90
25024;DHT22;13033;50.936;5.334;2023-12-22T02:33:08;9.50;99.90
25024;DHT22;13033;50.936;5.334;2023-12-22T02:35:40;9.50;99.90
25024;DHT22;13033;50.936;5.334;2023-12-22T02:38:07;9.50;99.90
25024;DHT22;13033;50.936;5.334;2023-12-22T02:40:34;9.40;99.90
25024;DHT22;13033;50.936;5.334;2023-12-22T02:43:02;9.40;99.90
25024;DHT22;13033;50.936;5.334;2023-12-22T02:45:28;9.30;99.90
25024;DHT22;13033;50.936;5.334;2023-12-22T02:47:55;9.40;99.90
25024;DHT22;13033;50.936;5.334;2023-12-22T02:50:21;9.40;99.90
25024;DHT22;13033;50.936;5.334;2023-12-22T02:52:48;9.40;99.90
25024;DHT22;13033;50.936;5.334;2023-12-22T02:55:14;9.50;99.90
25024;DHT22;13033;50.936;5.334;2023-12-22T02:57:39;9.50;99.90
25024;DHT22;13033;50.936;5.334;2023-12-22T03:00:05;9.60;99.90
25024;DHT22;13033;50.936;5.334;2023-12-22T03:02:32;9.60;99.90
25024;DHT22;13033;50.936;5.334;2023-12-22T03:04:58;9.60;99.90
25024;DHT22;13033;50.936;5.334;2023-12-22T03:07:23;9.70;99.90
25024;DHT22;13033;50.936;5.334;2023-12-22T03:09:49;9.70;99.90
25024;DHT22;13033;50.936;5.334;2023-12-22T03:12:15;9.70;99.90
25024;DHT22;13033;50.936;5.334;2023-12-22T03:14:41;9.70;99.90
25024;DHT22;13033;50.936;5.334;2023-12-22T03:17:07;9.80;99.90
25024;DHT22;13033;50.936;5.334;2023-12-22T03:19:33;9.90;99.90
25024;DHT22;13033;50.936;5.334;2023-12-22T03:21:59;9.90;99.90
25024;DHT22;13033;50.936;5.334;2023-12-22T03:24:26;9.80;99.90
25024;DHT22;13033;50.936;5.334;2023-12-22T03:26:52;9.60;99.90
25024;DHT22;13033;50.936;5.334;2023-12-22T03:29:18;9.40;99.90
25024;DHT22;13033;50.936;5.334;2023-12-22T03:31:44;9.20;99.90
25024;DHT22;13033;50.936;5.334;2023-12-22T03:34:11;9.10;99.90
25024;DHT22;13033;50.936;5.334;2023-12-22T03:36:37;9.10;99.90
25024;DHT22;13033;50.936;5.334;2023-12-22T03:39:04;9.10;99.90
25024;DHT22;13033;50.936;5.334;2023-12-22T03:41:30;9.20;99.90
25024;DHT22;13033;50.936;5.334;2023-12-22T03:43:56;9.20;99.90
25024;DHT22;13033;50.936;5.334;2023-12-22T03:46:22;9.30;99.90
25024;DHT22;13033;50.936;5.334;2023-12-22T03:48:49;9.40;99.90
25024;DHT22;13033;50.936;5.334;2023-12-22T03:51:14;9.50;99.90
25024;DHT22;13033;50.936;5.334;2023-12-22T03:53:41;9.50;99.90
25024;DHT22;13033;50.936;5.334;2023-12-22T03:56:09;9.60;99.90
25024;DHT22;13033;50.936;5.334;2023-12-22T03:58:36;9.60;99.90
25024;DHT22;13033;50.936;5.334;2023-12-22T04:01:01;9.70;99.90
25024;DHT22;13033;50.936;5.334;2023-12-22T04:03:27;9.70;99.90
25024;DHT22;13033;50.936;5.334;2023-12-22T04:05:53;9.80;99.90
25024;DHT22;13033;50.936;5.334;2023-12-22T04:08:19;9.80;99.90
25024;DHT22;13033;50.936;5.334;2023-12-22T04:10:46;9.80;99.90
25024;DHT22;13033;50.936;5.334;2023-12-22T04:13:12;9.80;99.90
25024;DHT22;13033;50.936;5.334;2023-12-22T04:15:37;9.90;99.90
25024;DHT22;13033;50.936;5.334;2023-12-22T04:18:03;9.90;99.90
25024;DHT22;13033;50.936;5.334;2023-12-22T04:20:29;9.90;99.90
25024;DHT22;13033;50.936;5.334;2023-12-22T04:22:55;9.90;99.90
25024;DHT22;13033;50.936;5.334;2023-12-22T04:25:20;10.00;99.90
25024;DHT22;13033;50.936;5.334;2023-12-22T04:27:48;10.00;99.90
25024;DHT22;13033;50.936;5.334;2023-12-22T04:30:15;10.00;99.90
25024;DHT22;13033;50.936;5.334;2023-12-22T04:32:40;9.90;99.90
25024;DHT22;13033;50.936;5.334;2023-12-22T04:35:06;9.90;99.90
25024;DHT22;13033;50.936;5.334;2023-12-22T04:37:32;9.90;99.90
25024;DHT22;13033;50.936;5.334;2023-12-22T04:39:58;9.90;99.90
25024;DHT22;13033;50.936;5.334;2023-12-22T04:42:24;9.90;99.90
25024;DHT22;13033;50.936;5.334;2023-12-22T04:44:51;9.90;99.90
25024;DHT22;13033;50.936;5.334;2023-12-22T04:47:17;9.80;99.90
25024;DHT22;13033;50.936;5.334;2023-12-22T04:49:42;9.50;99.90
25024;DHT22;13033;50.936;5.334;2023-12-22T04:52:10;9.30;99.90
25024;DHT22;13033;50.936;5.334;2023-12-22T04:54:36;9.30;99.90
25024;DHT22;13033;50.936;5.334;2023-12-22T04:57:01;9.20;99.90
25024;DHT22;13033;50.936;5.334;2023-12-22T04:59:27;9.20;99.90
25024;DHT22;13033;50.936;5.334;2023-12-22T05:01:53;9.30;99.90
25024;DHT22;13033;50.936;5.334;2023-12-22T05:04:18;9.30;99.90
25024;DHT22;13033;50.936;5.334;2023-12-22T05:06:47;9.30;99.90
25024;DHT22;13033;50.936;5.334;2023-12-22T05:09:12;9.40;99.90
25024;DHT22;13033;50.936;5.334;2023-12-22T05:11:38;9.40;99.90
25024;DHT22;13033;50.936;5.334;2023-12-22T05:14:04;9.40;99.90
25024;DHT22;13033;50.936;5.334;2023-12-22T05:16:29;9.50;99.90
25024;DHT22;13033;50.936;5.334;2023-12-22T05:18:57;9.50;99.90
25024;DHT22;13033;50.936;5.334;2023-12-22T05:21:24;9.50;99.90
25024;DHT22;13033;50.936;5.334;2023-12-22T05:23:51;9.50;99.90
25024;DHT22;13033;50.936;5.334;2023-12-22T05:26:20;9.50;99.90
25024;DHT22;13033;50.936;5.334;2023-12-22T05:28:46;9.50;99.90
25024;DHT22;13033;50.936;5.334;2023-12-22T05:31:13;9.50;99.90
25024;DHT22;13033;50.936;5.334;2023-12-22T05:33:38;9.40;99.90
25024;DHT22;13033;50.936;5.334;2023-12-22T05:36:04;9.30;99.90
25024;DHT22;13033;50.936;5.334;2023-12-22T05:38:30;9.20;99.90
25024;DHT22;13033;50.936;5.334;2023-12-22T05:40:57;9.20;99.90
25024;DHT22;13033;50.936;5.334;2023-12-22T05:43:22;9.10;99.90
25024;DHT22;13033;50.936;5.334;2023-12-22T05:45:48;9.10;99.90
25024;DHT22;13033;50.936;5.334;2023-12-22T05:48:14;9.10;99.90
25024;DHT22;13033;50.936;5.334;2023-12-22T05:50:39;9.10;99.90
25024;DHT22;13033;50.936;5.334;2023-12-22T05:53:05;9.00;99.90
25024;DHT22;13033;50.936;5.334;2023-12-22T05:55:31;9.10;99.90
25024;DHT22;13033;50.936;5.334;2023-12-22T05:57:57;9.10;99.90
25024;DHT22;13033;50.936;5.334;2023-12-22T06:00:22;9.10;99.90
25024;DHT22;13033;50.936;5.334;2023-12-22T06:02:48;9.10;99.90
25024;DHT22;13033;50.936;5.334;2023-12-22T06:05:14;9.00;99.90
25024;DHT22;13033;50.936;5.334;2023-12-22T06:07:40;9.00;99.90
25024;DHT22;13033;50.936;5.334;2023-12-22T06:10:07;9.10;99.90
25024;DHT22;13033;50.936;5.334;2023-12-22T06:12:35;9.10;99.90
25024;DHT22;13033;50.936;5.334;2023-12-22T06:15:00;9.00;99.90
25024;DHT22;13033;50.936;5.334;2023-12-22T06:17:26;9.00;99.90
25024;DHT22;13033;50.936;5.334;2023-12-22T06:19:52;9.00;99.90
25024;DHT22;13033;50.936;5.334;2023-12-22T06:22:17;9.00;99.90
25024;DHT22;13033;50.936;5.334;2023-12-22T06:24:43;9.10;99.90
25024;DHT22;13033;50.936;5.334;2023-12-22T06:27:11;9.10;99.90
25024;DHT22;13033;50.936;5.334;2023-12-22T06:29:37;9.10;99.90
25024;DHT22;13033;50.936;5.334;2023-12-22T06:32:03;9.10;99.90
25024;DHT22;13033;50.936;5.334;2023-12-22T06:34:31;9.00;99.90
25024;DHT22;13033;50.936;5.334;2023-12-22T06:36:57;8.90;99.90
25024;DHT22;13033;50.936;5.334;2023-12-22T06:39:23;8.90;99.90
25024;DHT22;13033;50.936;5.334;2023-12-22T06:41:49;8.90;99.90
25024;DHT22;13033;50.936;5.334;2023-12-22T06:44:14;8.90;99.90
25024;DHT22;13033;50.936;5.334;2023-12-22T06:46:40;8.90;99.90
25024;DHT22;13033;50.936;5.334;2023-12-22T06:49:06;8.90;99.90
25024;DHT22;13033;50.936;5.334;2023-12-22T06:51:31;9.00;99.90
25024;DHT22;13033;50.936;5.334;2023-12-22T06:54:00;8.90;99.90
25024;DHT22;13033;50.936;5.334;2023-12-22T06:56:28;8.90;99.90
25024;DHT22;13033;50.936;5.334;2023-12-22T06:58:55;8.90;99.90
25024;DHT22;13033;50.936;5.334;2023-12-22T07:01:26;8.90;99.90
25024;DHT22;13033;50.936;5.334;2023-12-22T07:03:52;8.90;99.90
25024;DHT22;13033;50.936;5.334;2023-12-22T07:06:19;8.90;99.90
25024;DHT22;13033;50.936;5.334;2023-12-22T07:11:50;8.90;99.90
25024;DHT22;13033;50.936;5.334;2023-12-22T07:14:17;8.90;99.90
25024;DHT22;13033;50.936;5.334;2023-12-22T07:16:43;8.90;99.90
25024;DHT22;13033;50.936;5.334;2023-12-22T07:19:09;8.90;99.90
25024;DHT22;13033;50.936;5.334;2023-12-22T07:21:34;8.90;99.90
25024;DHT22;13033;50.936;5.334;2023-12-22T07:24:00;8.90;99.90
25024;DHT22;13033;50.936;5.334;2023-12-22T07:26:29;9.00;99.90
25024;DHT22;13033;50.936;5.334;2023-12-22T07:28:55;8.90;99.90
25024;DHT22;13033;50.936;5.334;2023-12-22T07:31:21;8.90;99.90
25024;DHT22;13033;50.936;5.334;2023-12-22T07:33:47;9.00;99.90
25024;DHT22;13033;50.936;5.334;2023-12-22T07:36:13;9.00;99.90
25024;DHT22;13033;50.936;5.334;2023-12-22T07:38:39;9.00;99.90
25024;DHT22;13033;50.936;5.334;2023-12-22T07:41:05;9.00;99.90
25024;DHT22;13033;50.936;5.334;2023-12-22T07:43:31;9.00;99.90
25024;DHT22;13033;50.936;5.334;2023-12-22T07:45:57;9.00;99.90
25024;DHT22;13033;50.936;5.334;2023-12-22T07:48:23;9.00;99.90
25024;DHT22;13033;50.936;5.334;2023-12-22T07:50:49;9.00;99.90
25024;DHT22;13033;50.936;5.334;2023-12-22T07:53:15;9.00;99.90
25024;DHT22;13033;50.936;5.334;2023-12-22T07:55:42;9.10;99.90
25024;DHT22;13033;50.936;5.334;2023-12-22T07:58:08;9.00;99.90
25024;DHT22;13033;50.936;5.334;2023-12-22T08:00:34;9.10;99.90
25024;DHT22;13033;50.936;5.334;2023-12-22T08:02:59;9.00;99.90
25024;DHT22;13033;50.936;5.334;2023-12-22T08:05:28;9.10;99.90
25024;DHT22;13033;50.936;5.334;2023-12-22T08:07:55;9.10;99.90
25024;DHT22;13033;50.936;5.334;2023-12-22T08:10:21;9.10;99.90
25024;DHT22;13033;50.936;5.334;2023-12-22T08:12:46;9.10;99.90
25024;DHT22;13033;50.936;5.334;2023-12-22T08:15:12;9.20;99.90
25024;DHT22;13033;50.936;5.334;2023-12-22T08:17:46;9.20;99.90
25024;DHT22;13033;50.936;5.334;2023-12-22T08:20:16;9.20;99.90
25024;DHT22;13033;50.936;5.334;2023-12-22T08:22:42;9.10;99.90
25024;DHT22;13033;50.936;5.334;2023-12-22T08:25:09;9.10;99.90
25024;DHT22;13033;50.936;5.334;2023-12-22T08:27:34;9.10;99.90
25024;DHT22;13033;50.936;5.334;2023-12-22T08:30:00;9.00;99.90
25024;DHT22;13033;50.936;5.334;2023-12-22T08:32:26;9.10;99.90
25024;DHT22;13033;50.936;5.334;2023-12-22T08:34:51;9.10;99.90
25024;DHT22;13033;50.936;5.334;2023-12-22T08:37:17;9.10;99.90
25024;DHT22;13033;50.936;5.334;2023-12-22T08:39:43;9.10;99.90
25024;DHT22;13033;50.936;5.334;2023-12-22T08:42:08;9.10;99.90
25024;DHT22;13033;50.936;5.334;2023-12-22T08:44:35;9.20;99.90
25024;DHT22;13033;50.936;5.334;2023-12-22T08:47:02;9.10;99.90
25024;DHT22;13033;50.936;5.334;2023-12-22T08:49:28;9.00;99.90
25024;DHT22;13033;50.936;5.334;2023-12-22T08:51:53;9.10;99.90
25024;DHT22;13033;50.936;5.334;2023-12-22T08:54:19;9.10;99.90
25024;DHT22;13033;50.936;5.334;2023-12-22T08:56:45;9.10;99.90
25024;DHT22;13033;50.936;5.334;2023-12-22T08:59:10;9.10;99.90
25024;DHT22;13033;50.936;5.334;2023-12-22T09:01:36;9.20;99.90
25024;DHT22;13033;50.936;5.334;2023-12-22T09:04:02;9.20;99.90
25024;DHT22;13033;50.936;5.334;2023-12-22T09:06:28;9.20;99.90
25024;DHT22;13033;50.936;5.334;2023-12-22T09:08:53;9.30;99.90
25024;DHT22;13033;50.936;5.334;2023-12-22T09:11:20;9.30;99.90
25024;DHT22;13033;50.936;5.334;2023-12-22T09:13:48;9.30;99.90
25024;DHT22;13033;50.936;5.334;2023-12-22T09:16:16;9.30;99.90
25024;DHT22;13033;50.936;5.334;2023-12-22T09:18:45;9.30;99.90
25024;DHT22;13033;50.936;5.334;2023-12-22T09:21:11;9.40;99.90
25024;DHT22;13033;50.936;5.334;2023-12-22T09:23:36;9.40;99.90
25024;DHT22;13033;50.936;5.334;2023-12-22T09:26:02;9.40;99.90
25024;DHT22;13033;50.936;5.334;2023-12-22T09:28:30;9.50;99.90
25024;DHT22;13033;50.936;5.334;2023-12-22T09:30:55;9.50;99.90
25024;DHT22;13033;50.936;5.334;2023-12-22T09:33:22;9.50;99.90
25024;DHT22;13033;50.936;5.334;2023-12-22T09:35:48;9.50;99.90
25024;DHT22;13033;50.936;5.334;2023-12-22T09:38:14;9.50;99.90
25024;DHT22;13033;50.936;5.334;2023-12-22T09:40:40;9.60;99.90
25024;DHT22;13033;50.936;5.334;2023-12-22T09:43:07;9.60;99.90
25024;DHT22;13033;50.936;5.334;2023-12-22T09:45:34;9.70;99.90
25024;DHT22;13033;50.936;5.334;2023-12-22T09:48:01;9.80;99.90
25024;DHT22;13033;50.936;5.334;2023-12-22T09:50:31;9.80;99.90
25024;DHT22;13033;50.936;5.334;2023-12-22T09:52:58;9.80;99.90
25024;DHT22;13033;50.936;5.334;2023-12-22T09:55:25;9.90;99.90
25024;DHT22;13033;50.936;5.334;2023-12-22T09:57:52;10.00;99.90
25024;DHT22;13033;50.936;5.334;2023-12-22T10:00:21;10.10;99.90
25024;DHT22;13033;50.936;5.334;2023-12-22T10:02:48;10.00;99.90
25024;DHT22;13033;50.936;5.334;2023-12-22T10:05:14;10.00;99.90
25024;DHT22;13033;50.936;5.334;2023-12-22T10:07:41;9.90;99.90
25024;DHT22;13033;50.936;5.334;2023-12-22T10:10:10;10.00;99.90
25024;DHT22;13033;50.936;5.334;2023-12-22T10:12:38;10.00;99.90
25024;DHT22;13033;50.936;5.334;2023-12-22T10:15:05;10.10;99.90
25024;DHT22;13033;50.936;5.334;2023-12-22T10:17:33;10.10;99.90
25024;DHT22;13033;50.936;5.334;2023-12-22T10:19:59;10.10;99.90
25024;DHT22;13033;50.936;5.334;2023-12-22T10:22:26;10.10;99.90
25024;DHT22;13033;50.936;5.334;2023-12-22T10:24:51;10.00;99.90
25024;DHT22;13033;50.936;5.334;2023-12-22T10:27:18;10.00;99.90
25024;DHT22;13033;50.936;5.334;2023-12-22T10:29:54;9.90;99.90
25024;DHT22;13033;50.936;5.334;2023-12-22T10:32:22;10.00;99.90
25024;DHT22;13033;50.936;5.334;2023-12-22T10:34:50;9.90;99.90
25024;DHT22;13033;50.936;5.334;2023-12-22T10:37:16;9.90;99.90
25024;DHT22;13033;50.936;5.334;2023-12-22T10:39:42;9.90;99.90
25024;DHT22;13033;50.936;5.334;2023-12-22T10:42:08;9.90;99.90
25024;DHT22;13033;50.936;5.334;2023-12-22T10:44:34;9.90;99.90
25024;DHT22;13033;50.936;5.334;2023-12-22T10:47:00;9.90;99.90
25024;DHT22;13033;50.936;5.334;2023-12-22T10:49:26;10.00;99.90
25024;DHT22;13033;50.936;5.334;2023-12-22T10:51:52;10.00;99.90
25024;DHT22;13033;50.936;5.334;2023-12-22T10:54:19;10.10;99.90
25024;DHT22;13033;50.936;5.334;2023-12-22T10:56:45;10.20;99.90
25024;DHT22;13033;50.936;5.334;2023-12-22T10:59:10;10.20;99.90
25024;DHT22;13033;50.936;5.334;2023-12-22T11:01:37;10.30;99.90
25024;DHT22;13033;50.936;5.334;2023-12-22T11:04:07;10.30;99.90
25024;DHT22;13033;50.936;5.334;2023-12-22T11:06:37;10.40;99.90
25024;DHT22;13033;50.936;5.334;2023-12-22T11:09:10;10.40;99.90
25024;DHT22;13033;50.936;5.334;2023-12-22T11:11:38;10.30;99.90
25024;DHT22;13033;50.936;5.334;2023-12-22T11:14:06;10.30;99.90
25024;DHT22;13033;50.936;5.334;2023-12-22T11:16:33;10.40;99.90
25024;DHT22;13033;50.936;5.334;2023-12-22T11:19:00;10.40;99.90
25024;DHT22;13033;50.936;5.334;2023-12-22T11:21:33;10.40;99.90
25024;DHT22;13033;50.936;5.334;2023-12-22T11:24:04;10.40;99.90
25024;DHT22;13033;50.936;5.334;2023-12-22T11:26:31;10.40;99.90
25024;DHT22;13033;50.936;5.334;2023-12-22T11:28:56;10.40;99.90
25024;DHT22;13033;50.936;5.334;2023-12-22T11:31:23;10.40;99.90
25024;DHT22;13033;50.936;5.334;2023-12-22T11:33:51;10.40;99.90
25024;DHT22;13033;50.936;5.334;2023-12-22T11:36:18;10.40;99.90
25024;DHT22;13033;50.936;5.334;2023-12-22T11:38:45;10.40;99.90
25024;DHT22;13033;50.936;5.334;2023-12-22T11:41:20;10.40;99.90
25024;DHT22;13033;50.936;5.334;2023-12-22T11:43:47;10.40;99.90
25024;DHT22;13033;50.936;5.334;2023-12-22T11:46:16;10.30;99.90
25024;DHT22;13033;50.936;5.334;2023-12-22T11:48:50;10.30;99.90
25024;DHT22;13033;50.936;5.334;2023-12-22T11:51:17;10.30;99.90
25024;DHT22;13033;50.936;5.334;2023-12-22T11:53:44;10.30;99.90
25024;DHT22;13033;50.936;5.334;2023-12-22T11:56:11;10.30;99.90
25024;DHT22;13033;50.936;5.334;2023-12-22T12:01:06;10.40;99.90
25024;DHT22;13033;50.936;5.334;2023-12-22T12:03:42;10.40;99.90
25024;DHT22;13033;50.936;5.334;2023-12-22T12:06:23;10.50;99.90
25024;DHT22;13033;50.936;5.334;2023-12-22T12:09:00;10.40;99.90
25024;DHT22;13033;50.936;5.334;2023-12-22T12:14:14;10.50;99.90
25024;DHT22;13033;50.936;5.334;2023-12-22T12:16:42;10.50;99.90
25024;DHT22;13033;50.936;5.334;2023-12-22T12:19:09;10.50;99.90
25024;DHT22;13033;50.936;5.334;2023-12-22T12:21:35;10.60;99.90
25024;DHT22;13033;50.936;5.334;2023-12-22T12:24:00;10.60;99.90
25024;DHT22;13033;50.936;5.334;2023-12-22T12:26:27;10.60;99.90
25024;DHT22;13033;50.936;5.334;2023-12-22T12:28:53;10.60;99.90
25024;DHT22;13033;50.936;5.334;2023-12-22T12:31:35;10.60;99.90
25024;DHT22;13033;50.936;5.334;2023-12-22T12:34:04;10.60;99.90
25024;DHT22;13033;50.936;5.334;2023-12-22T12:36:31;10.60;99.90
25024;DHT22;13033;50.936;5.334;2023-12-22T12:39:07;10.60;99.90
25024;DHT22;13033;50.936;5.334;2023-12-22T12:41:39;10.70;99.90
25024;DHT22;13033;50.936;5.334;2023-12-22T12:44:07;10.70;99.90
25024;DHT22;13033;50.936;5.334;2023-12-22T12:46:36;10.70;99.90
25024;DHT22;13033;50.936;5.334;2023-12-22T12:49:04;10.80;99.90
25024;DHT22;13033;50.936;5.334;2023-12-22T12:51:36;10.80;99.90
25024;DHT22;13033;50.936;5.334;2023-12-22T12:54:03;10.70;99.90
25024;DHT22;13033;50.936;5.334;2023-12-22T12:56:29;10.70;99.90
25024;DHT22;13033;50.936;5.334;2023-12-22T12:58:54;10.80;99.90
25024;DHT22;13033;50.936;5.334;2023-12-22T13:01:20;10.80;99.90
25024;DHT22;13033;50.936;5.334;2023-12-22T13:03:55;10.90;99.90
25024;DHT22;13033;50.936;5.334;2023-12-22T13:06:21;10.90;99.90
25024;DHT22;13033;50.936;5.334;2023-12-22T13:08:51;10.90;99.90
25024;DHT22;13033;50.936;5.334;2023-12-22T13:11:25;10.90;99.90
25024;DHT22;13033;50.936;5.334;2023-12-22T13:13:51;10.80;99.90
25024;DHT22;13033;50.936;5.334;2023-12-22T13:16:21;10.80;99.90
25024;DHT22;13033;50.936;5.334;2023-12-22T13:18:48;10.70;99.90
25024;DHT22;13033;50.936;5.334;2023-12-22T13:21:14;10.70;99.90
25024;DHT22;13033;50.936;5.334;2023-12-22T13:23:41;10.70;99.90
25024;DHT22;13033;50.936;5.334;2023-12-22T13:26:16;10.70;99.90
25024;DHT22;13033;50.936;5.334;2023-12-22T13:28:43;10.70;99.90
25024;DHT22;13033;50.936;5.334;2023-12-22T13:31:15;10.70;99.90
25024;DHT22;13033;50.936;5.334;2023-12-22T13:33:44;10.60;99.90
25024;DHT22;13033;50.936;5.334;2023-12-22T13:36:10;10.60;99.90
25024;DHT22;13033;50.936;5.334;2023-12-22T13:38:36;10.60;99.90
25024;DHT22;13033;50.936;5.334;2023-12-22T13:41:02;10.60;99.90
25024;DHT22;13033;50.936;5.334;2023-12-22T13:43:31;10.60;99.90
25024;DHT22;13033;50.936;5.334;2023-12-22T13:45:57;10.60;99.90
25024;DHT22;13033;50.936;5.334;2023-12-22T13:48:23;10.60;99.90
25024;DHT22;13033;50.936;5.334;2023-12-22T13:51:00;10.60;99.90
25024;DHT22;13033;50.936;5.334;2023-12-22T13:53:26;10.60;99.90
25024;DHT22;13033;50.936;5.334;2023-12-22T13:56:00;10.60;99.90
25024;DHT22;13033;50.936;5.334;2023-12-22T13:58:26;10.60;99.90
25024;DHT22;13033;50.936;5.334;2023-12-22T14:00:53;10.60;99.90
25024;DHT22;13033;50.936;5.334;2023-12-22T14:03:19;10.60;99.90
25024;DHT22;13033;50.936;5.334;2023-12-22T14:05:48;10.60;99.90
25024;DHT22;13033;50.936;5.334;2023-12-22T14:08:15;10.70;99.90
25024;DHT22;13033;50.936;5.334;2023-12-22T14:10:47;10.70;99.90
25024;DHT22;13033;50.936;5.334;2023-12-22T14:13:15;10.70;99.90
25024;DHT22;13033;50.936;5.334;2023-12-22T14:15:43;10.70;99.90
25024;DHT22;13033;50.936;5.334;2023-12-22T14:18:10;10.70;99.90
25024;DHT22;13033;50.936;5.334;2023-12-22T14:20:36;10.70;99.90
25024;DHT22;13033;50.936;5.334;2023-12-22T14:23:02;10.80;99.90
25024;DHT22;13033;50.936;5.334;2023-12-22T14:25:28;10.80;99.90
25024;DHT22;13033;50.936;5.334;2023-12-22T14:27:53;10.80;99.90
25024;DHT22;13033;50.936;5.334;2023-12-22T14:30:23;10.80;99.90
25024;DHT22;13033;50.936;5.334;2023-12-22T14:32:49;10.80;99.90
25024;DHT22;13033;50.936;5.334;2023-12-22T14:35:15;10.90;99.90
25024;DHT22;13033;50.936;5.334;2023-12-22T14:37:40;10.80;99.90
25024;DHT22;13033;50.936;5.334;2023-12-22T14:40:08;10.80;99.90
25024;DHT22;13033;50.936;5.334;2023-12-22T14:42:35;10.80;99.90
25024;DHT22;13033;50.936;5.334;2023-12-22T14:45:00;10.80;99.90
25024;DHT22;13033;50.936;5.334;2023-12-22T14:47:30;10.90;99.90
25024;DHT22;13033;50.936;5.334;2023-12-22T14:49:56;10.90;99.90
25024;DHT22;13033;50.936;5.334;2023-12-22T14:52:25;10.80;99.90
25024;DHT22;13033;50.936;5.334;2023-12-22T14:54:51;10.80;99.90
25024;DHT22;13033;50.936;5.334;2023-12-22T14:57:16;10.70;99.90
25024;DHT22;13033;50.936;5.334;2023-12-22T14:59:47;10.60;99.90
25024;DHT22;13033;50.936;5.334;2023-12-22T15:02:12;10.60;99.90
25024;DHT22;13033;50.936;5.334;2023-12-22T15:04:39;10.50;99.90
25024;DHT22;13033;50.936;5.334;2023-12-22T15:07:05;10.50;99.90
25024;DHT22;13033;50.936;5.334;2023-12-22T15:09:31;10.50;99.90
25024;DHT22;13033;50.936;5.334;2023-12-22T15:11:56;10.50;99.90
25024;DHT22;13033;50.936;5.334;2023-12-22T15:14:22;10.50;99.90
25024;DHT22;13033;50.936;5.334;2023-12-22T15:16:49;10.50;99.90
25024;DHT22;13033;50.936;5.334;2023-12-22T15:19:17;10.50;99.90
25024;DHT22;13033;50.936;5.334;2023-12-22T15:21:43;10.50;99.90
25024;DHT22;13033;50.936;5.334;2023-12-22T15:24:09;10.50;99.90
25024;DHT22;13033;50.936;5.334;2023-12-22T15:26:35;10.40;99.90
25024;DHT22;13033;50.936;5.334;2023-12-22T15:29:02;10.40;99.90
25024;DHT22;13033;50.936;5.334;2023-12-22T15:31:27;10.40;99.90
25024;DHT22;13033;50.936;5.334;2023-12-22T15:33:57;10.40;99.90
25024;DHT22;13033;50.936;5.334;2023-12-22T15:36:23;10.40;99.90
25024;DHT22;13033;50.936;5.334;2023-12-22T15:38:49;10.50;99.90
25024;DHT22;13033;50.936;5.334;2023-12-22T15:41:15;10.50;99.90
25024;DHT22;13033;50.936;5.334;2023-12-22T15:43:41;10.60;99.90
25024;DHT22;13033;50.936;5.334;2023-12-22T15:46:08;10.60;99.90